createdAt,value
2019-03-31T00:02:37.268Z,59.10
2019-03-31T00:05:25.444Z,59.10
2019-03-31T00:08:13.942Z,59.20
2019-03-31T00:11:02.561Z,59.00
2019-03-31T00:13:51.106Z,59.10
2019-03-31T00:16:40.160Z,59.20
2019-03-31T00:19:28.233Z,59.10
2019-03-31T00:22:16.565Z,59.10
2019-03-31T00:25:06.321Z,59.20
2019-03-31T00:27:54.675Z,59.20
2019-03-31T00:30:43.384Z,59.10
2019-03-31T00:33:31.641Z,59.10
2019-03-31T00:36:20.941Z,59.20
2019-03-31T00:39:09.504Z,59.20
2019-03-31T00:41:40.166Z,59.20
2019-03-31T00:44:10.811Z,59.20
2019-03-31T00:46:41.555Z,59.30
2019-03-31T00:49:13.102Z,59.20
2019-03-31T00:52:01.476Z,59.30
2019-03-31T00:54:49.957Z,59.30
2019-03-31T00:57:38.421Z,59.30
2019-03-31T01:00:46.664Z,59.40
2019-03-31T01:03:35.442Z,59.40
2019-03-31T01:06:24.734Z,59.40
2019-03-31T01:09:29.487Z,59.50
2019-03-31T01:12:18.958Z,59.50
2019-03-31T01:15:11.102Z,59.70
2019-03-31T01:18:00.530Z,59.60
2019-03-31T01:20:49.191Z,59.50
2019-03-31T01:23:37.734Z,59.60
2019-03-31T01:26:27.193Z,59.60
2019-03-31T01:29:16.139Z,59.70
2019-03-31T01:32:05.035Z,59.70
2019-03-31T01:34:53.418Z,59.70
2019-03-31T01:37:42.405Z,59.60
2019-03-31T01:40:31.209Z,59.80
2019-03-31T01:43:20.338Z,59.70
2019-03-31T01:46:10.421Z,59.80
2019-03-31T01:48:58.686Z,59.80
2019-03-31T01:51:47.319Z,60.00
2019-03-31T01:54:36.329Z,59.90
2019-03-31T01:57:25.114Z,59.90
2019-03-31T02:00:24.820Z,60.00
2019-03-31T02:03:13.610Z,60.00
2019-03-31T02:06:03.007Z,60.00
2019-03-31T02:08:51.550Z,60.00
2019-03-31T02:11:40.103Z,60.00
2019-03-31T02:14:28.245Z,59.50
2019-03-31T02:17:16.737Z,60.00
2019-03-31T02:20:07.198Z,60.00
2019-03-31T02:22:56.142Z,60.20
2019-03-31T02:25:44.750Z,60.10
2019-03-31T02:28:32.993Z,60.20
2019-03-31T02:31:21.340Z,60.20
2019-03-31T02:34:09.729Z,60.30
2019-03-31T02:36:58.626Z,60.20
2019-03-31T02:39:46.937Z,60.20
2019-03-31T02:42:35.238Z,60.20
2019-03-31T02:45:23.713Z,60.20
2019-03-31T02:48:12.622Z,60.20
2019-03-31T02:50:51.617Z,60.30
2019-03-31T02:53:40.605Z,60.30
2019-03-31T02:56:29.107Z,60.30
2019-03-31T02:59:19.214Z,60.30
2019-03-31T03:02:09.345Z,60.20
2019-03-31T03:05:16.812Z,60.20
2019-03-31T03:07:50.983Z,60.10
2019-03-31T03:10:40.965Z,60.10
2019-03-31T03:13:32.530Z,60.00
2019-03-31T03:16:22.155Z,60.10
2019-03-31T03:19:11.062Z,60.30
2019-03-31T03:21:59.591Z,60.50
2019-03-31T03:24:47.824Z,60.30
2019-03-31T03:27:37.881Z,60.20
2019-03-31T03:30:26.300Z,60.10
2019-03-31T03:33:17.685Z,59.90
2019-03-31T03:36:05.168Z,59.80
2019-03-31T03:38:53.706Z,59.60
2019-03-31T03:41:43.535Z,59.50
2019-03-31T03:44:31.874Z,59.20
2019-03-31T03:47:20.322Z,59.20
2019-03-31T03:50:09.077Z,59.00
2019-03-31T03:52:57.524Z,58.90
2019-03-31T03:55:46.592Z,58.70
2019-03-31T03:58:35.440Z,58.60
2019-03-31T04:01:26.030Z,58.50
2019-03-31T04:04:14.526Z,58.30
2019-03-31T04:07:03.023Z,58.30
2019-03-31T04:09:51.387Z,58.20
2019-03-31T04:12:40.260Z,58.10
2019-03-31T04:15:28.818Z,58.00
2019-03-31T04:18:17.267Z,58.00
2019-03-31T04:21:05.903Z,58.60
2019-03-31T04:23:54.546Z,57.90
2019-03-31T04:26:42.993Z,57.90
2019-03-31T04:29:31.089Z,57.80
2019-03-31T04:32:19.185Z,57.80
2019-03-31T04:35:08.108Z,57.70
2019-03-31T04:37:56.557Z,57.60
2019-03-31T04:40:45.068Z,57.60
2019-03-31T04:43:33.774Z,57.60
2019-03-31T04:46:22.165Z,57.60
2019-03-31T04:49:10.674Z,57.50
2019-03-31T04:51:56.577Z,57.50
2019-03-31T04:54:45.059Z,57.40
2019-03-31T04:57:33.717Z,57.40
2019-03-31T05:00:22.279Z,57.40
2019-03-31T05:03:11.124Z,57.40
2019-03-31T05:06:00.204Z,57.40
2019-03-31T05:08:48.717Z,57.30
2019-03-31T05:11:37.048Z,57.30
2019-03-31T05:14:25.826Z,57.30
2019-03-31T05:17:14.194Z,57.20
2019-03-31T05:20:03.550Z,57.20
2019-03-31T05:22:52.970Z,57.20
2019-03-31T05:25:42.309Z,57.20
2019-03-31T05:28:30.696Z,57.10
2019-03-31T05:31:19.214Z,57.10
2019-03-31T05:34:18.427Z,57.10
2019-03-31T05:36:58.001Z,57.10
2019-03-31T05:39:46.048Z,57.10
2019-03-31T05:42:34.760Z,57.10
2019-03-31T05:45:23.082Z,57.10
2019-03-31T05:48:11.437Z,57.10
2019-03-31T05:51:00.380Z,57.10
2019-03-31T05:53:48.776Z,57.00
2019-03-31T05:56:37.552Z,57.00
2019-03-31T05:59:26.155Z,57.00
2019-03-31T06:02:14.676Z,57.00
2019-03-31T06:05:03.868Z,57.10
2019-03-31T06:07:52.785Z,57.00
2019-03-31T06:10:41.177Z,57.00
2019-03-31T06:13:29.520Z,57.10
2019-03-31T06:16:17.743Z,57.10
2019-03-31T06:19:06.825Z,57.20
2019-03-31T06:21:55.469Z,57.20
2019-03-31T06:24:43.791Z,57.20
2019-03-31T06:27:32.059Z,57.10
2019-03-31T06:30:21.609Z,56.90
2019-03-31T06:33:09.858Z,56.80
2019-03-31T06:35:58.397Z,56.60
2019-03-31T06:38:47.093Z,56.30
2019-03-31T06:41:35.515Z,56.10
2019-03-31T06:44:23.765Z,56.00
2019-03-31T06:47:12.163Z,55.00
2019-03-31T06:50:00.382Z,55.40
2019-03-31T06:52:48.603Z,55.30
2019-03-31T06:55:37.347Z,55.20
2019-03-31T06:58:25.623Z,55.10
2019-03-31T07:01:14.217Z,54.90
2019-03-31T07:04:02.716Z,54.70
2019-03-31T07:06:51.413Z,54.60
2019-03-31T07:09:39.820Z,54.40
2019-03-31T07:12:28.696Z,54.30
2019-03-31T07:15:18.031Z,54.30
2019-03-31T07:18:06.736Z,54.00
2019-03-31T07:20:54.860Z,53.80
2019-03-31T07:23:43.244Z,53.60
2019-03-31T07:26:31.611Z,53.60
2019-03-31T07:29:20.014Z,53.50
2019-03-31T07:32:08.548Z,53.40
2019-03-31T07:34:57.239Z,53.50
2019-03-31T07:37:47.562Z,53.40
2019-03-31T07:40:36.887Z,53.20
2019-03-31T07:43:25.696Z,53.30
2019-03-31T07:46:14.034Z,53.30
2019-03-31T07:49:02.353Z,53.20
2019-03-31T07:51:50.729Z,53.00
2019-03-31T07:54:39.235Z,52.80
2019-03-31T07:57:27.716Z,52.70
2019-03-31T08:00:19.251Z,52.80
2019-03-31T08:03:07.913Z,49.30
2019-03-31T08:05:56.399Z,50.00
2019-03-31T08:08:44.748Z,50.60
2019-03-31T08:11:33.257Z,50.40
2019-03-31T08:14:21.482Z,50.20
2019-03-31T08:17:09.690Z,49.70
2019-03-31T08:19:58.732Z,49.20
2019-03-31T08:22:47.713Z,48.40
2019-03-31T08:25:37.239Z,47.80
2019-03-31T08:28:25.852Z,47.50
2019-03-31T08:31:14.018Z,47.00
2019-03-31T08:34:04.089Z,47.10
2019-03-31T08:36:52.614Z,46.40
2019-03-31T08:39:41.070Z,45.70
2019-03-31T08:42:29.362Z,44.70
2019-03-31T08:45:18.206Z,39.30
2019-03-31T08:48:06.772Z,33.00
2019-03-31T08:50:55.346Z,34.20
2019-03-31T08:53:43.480Z,33.40
2019-03-31T08:56:32.691Z,33.20
2019-03-31T08:59:21.620Z,34.40
2019-03-31T09:02:23.958Z,35.50
2019-03-31T09:05:13.123Z,36.80
2019-03-31T09:08:02.018Z,36.70
2019-03-31T09:10:51.006Z,37.70
2019-03-31T09:13:39.533Z,39.10
2019-03-31T09:16:28.322Z,40.40
2019-03-31T09:19:16.916Z,40.60
2019-03-31T09:22:05.996Z,41.10
2019-03-31T09:24:54.186Z,41.40
2019-03-31T09:27:42.567Z,41.80
2019-03-31T09:30:31.156Z,42.20
2019-03-31T09:33:19.296Z,42.30
2019-03-31T09:36:16.015Z,42.50
2019-03-31T09:38:59.021Z,42.80
2019-03-31T09:41:47.936Z,43.10
2019-03-31T09:44:36.743Z,43.20
2019-03-31T09:47:24.948Z,43.40
2019-03-31T09:50:17.262Z,43.40
2019-03-31T09:53:04.900Z,43.60
2019-03-31T09:55:53.360Z,43.70
2019-03-31T09:58:41.545Z,43.70
2019-03-31T10:01:29.956Z,44.10
2019-03-31T10:04:18.281Z,44.20
2019-03-31T10:07:06.923Z,44.40
2019-03-31T10:09:56.865Z,44.30
2019-03-31T10:12:45.171Z,44.40
2019-03-31T10:15:33.695Z,44.40
2019-03-31T10:18:22.036Z,44.30
2019-03-31T10:21:10.148Z,44.50
2019-03-31T10:23:58.768Z,44.60
2019-03-31T10:26:47.078Z,44.70
2019-03-31T10:29:35.328Z,44.80
2019-03-31T10:32:23.919Z,44.80
2019-03-31T10:35:13.569Z,44.70
2019-03-31T10:38:02.050Z,44.60
2019-03-31T10:40:50.520Z,44.70
2019-03-31T10:43:40.172Z,44.80
2019-03-31T10:46:29.039Z,44.70
2019-03-31T10:49:17.584Z,44.90
2019-03-31T10:52:06.284Z,44.80
2019-03-31T10:54:54.920Z,44.80
2019-03-31T10:57:43.544Z,44.90
2019-03-31T11:00:36.853Z,45.00
2019-03-31T11:03:25.232Z,45.00
2019-03-31T11:06:13.576Z,45.20
2019-03-31T11:08:52.989Z,45.20
2019-03-31T11:11:23.652Z,45.30
2019-03-31T11:13:54.382Z,45.80
2019-03-31T11:16:25.007Z,45.40
2019-03-31T11:18:55.787Z,45.40
2019-03-31T11:21:47.521Z,45.40
2019-03-31T11:24:36.117Z,45.40
2019-03-31T11:27:24.457Z,45.40
2019-03-31T11:30:13.814Z,45.50
2019-03-31T11:33:02.348Z,45.40
2019-03-31T11:35:50.659Z,45.50
2019-03-31T11:38:39.299Z,45.50
2019-03-31T11:41:27.295Z,45.50
2019-03-31T11:44:15.655Z,45.60
2019-03-31T11:47:04.283Z,45.70
2019-03-31T11:49:52.684Z,45.70
2019-03-31T11:52:23.383Z,45.20
2019-03-31T11:54:54.050Z,45.30
2019-03-31T11:57:24.819Z,45.50
2019-03-31T11:59:55.469Z,45.70
2019-03-31T12:02:27.841Z,45.80
2019-03-31T12:04:58.890Z,46.00
2019-03-31T12:07:29.513Z,46.00
2019-03-31T12:10:00.353Z,46.20
2019-03-31T12:12:31.100Z,46.30
2019-03-31T12:15:01.706Z,46.40
2019-03-31T12:17:32.487Z,46.40
2019-03-31T12:20:04.947Z,46.60
2019-03-31T12:22:35.791Z,46.60
2019-03-31T12:25:08.176Z,46.70
2019-03-31T12:27:56.461Z,46.70
2019-03-31T12:30:45.186Z,46.80
2019-03-31T12:33:33.806Z,46.90
2019-03-31T12:36:22.526Z,47.00
2019-03-31T12:39:10.741Z,47.10
2019-03-31T12:41:59.068Z,47.10
2019-03-31T12:44:47.466Z,47.30
2019-03-31T12:47:35.644Z,47.40
2019-03-31T12:50:07.534Z,47.50
2019-03-31T12:52:46.723Z,47.50
2019-03-31T12:55:10.659Z,47.60
2019-03-31T12:57:41.366Z,47.80
2019-03-31T13:00:29.581Z,47.90
2019-03-31T13:03:17.817Z,48.00
2019-03-31T13:06:06.370Z,48.50
2019-03-31T13:08:54.623Z,49.70
2019-03-31T13:11:42.999Z,49.90
2019-03-31T13:14:31.230Z,50.40
2019-03-31T13:17:19.681Z,50.50
2019-03-31T13:20:09.037Z,50.80
2019-03-31T13:22:58.319Z,50.20
2019-03-31T13:25:46.734Z,50.10
2019-03-31T13:28:34.974Z,50.00
2019-03-31T13:31:23.295Z,50.00
2019-03-31T13:34:11.891Z,50.20
2019-03-31T13:37:00.352Z,51.30
2019-03-31T13:39:48.794Z,51.20
2019-03-31T13:42:37.218Z,51.00
2019-03-31T13:45:25.790Z,50.70
2019-03-31T13:48:14.259Z,50.80
2019-03-31T13:51:02.611Z,50.90
2019-03-31T13:53:50.904Z,50.60
2019-03-31T13:56:39.927Z,50.60
2019-03-31T13:59:28.280Z,50.60
2019-03-31T14:02:16.658Z,50.60
2019-03-31T14:05:06.713Z,50.60
2019-03-31T14:07:55.102Z,50.80
2019-03-31T14:10:43.662Z,50.60
2019-03-31T14:13:31.750Z,50.40
2019-03-31T14:16:19.739Z,50.40
2019-03-31T14:19:07.990Z,50.40
2019-03-31T14:21:56.407Z,50.40
2019-03-31T14:24:45.086Z,50.40
2019-03-31T14:27:33.500Z,50.40
2019-03-31T14:30:22.455Z,50.40
2019-03-31T14:33:11.051Z,50.40
2019-03-31T14:35:59.637Z,50.40
2019-03-31T14:38:47.944Z,50.50
2019-03-31T14:41:36.026Z,50.40
2019-03-31T14:44:24.429Z,50.40
2019-03-31T14:47:12.979Z,50.40
2019-03-31T14:50:01.513Z,50.40
2019-03-31T14:52:49.695Z,50.40
2019-03-31T14:55:37.931Z,50.40
2019-03-31T14:58:26.342Z,50.40
2019-03-31T15:01:14.595Z,50.40
2019-03-31T15:04:02.984Z,50.40
2019-03-31T15:06:42.620Z,50.30
2019-03-31T15:09:15.946Z,50.40
2019-03-31T15:11:46.596Z,50.40
2019-03-31T15:14:17.243Z,50.30
2019-03-31T15:17:05.848Z,50.40
2019-03-31T15:19:54.271Z,50.40
2019-03-31T15:22:42.431Z,50.40
2019-03-31T15:25:30.732Z,50.40
2019-03-31T15:28:19.011Z,50.40
2019-03-31T15:31:07.509Z,50.40
2019-03-31T15:33:56.077Z,50.40
2019-03-31T15:36:44.246Z,50.40
2019-03-31T15:39:32.649Z,50.30
2019-03-31T15:42:20.846Z,50.40
2019-03-31T15:45:11.314Z,50.30
2019-03-31T15:48:00.504Z,50.20
2019-03-31T15:50:49.097Z,50.10
2019-03-31T15:53:37.354Z,50.00
2019-03-31T15:56:25.984Z,50.10
2019-03-31T15:59:14.390Z,50.20
2019-03-31T16:02:02.686Z,50.20
2019-03-31T16:04:50.932Z,50.20
2019-03-31T16:07:39.689Z,50.30
2019-03-31T16:10:27.900Z,50.30
2019-03-31T16:13:16.036Z,50.40
2019-03-31T16:16:05.448Z,50.50
2019-03-31T16:18:54.065Z,50.60
2019-03-31T16:21:44.254Z,50.60
2019-03-31T16:24:34.251Z,50.70
2019-03-31T16:27:22.469Z,50.80
2019-03-31T16:30:11.272Z,50.70
2019-03-31T16:32:59.728Z,50.80
2019-03-31T16:35:48.064Z,51.00
2019-03-31T16:38:36.197Z,51.00
2019-03-31T16:41:24.385Z,51.10
2019-03-31T16:44:12.610Z,51.20
2019-03-31T16:47:01.112Z,51.20
2019-03-31T16:49:49.469Z,51.20
2019-03-31T16:52:37.752Z,51.30
2019-03-31T16:55:26.251Z,51.30
2019-03-31T16:58:14.568Z,51.30
2019-03-31T17:01:02.797Z,51.40
2019-03-31T17:03:51.084Z,51.30
2019-03-31T17:06:39.623Z,51.30
2019-03-31T17:09:27.634Z,50.50
2019-03-31T17:12:16.009Z,50.00
2019-03-31T17:15:06.912Z,50.00
2019-03-31T17:17:55.467Z,50.20
2019-03-31T17:20:43.951Z,50.40
2019-03-31T17:23:32.559Z,50.60
2019-03-31T17:26:21.158Z,50.70
2019-03-31T17:29:09.560Z,50.90
2019-03-31T17:31:57.830Z,51.00
2019-03-31T17:34:46.241Z,51.10
2019-03-31T17:37:35.904Z,51.10
2019-03-31T17:40:24.124Z,51.20
2019-03-31T17:43:12.538Z,51.30
2019-03-31T17:46:00.938Z,51.40
2019-03-31T17:48:49.532Z,51.40
2019-03-31T17:51:38.085Z,51.50
2019-03-31T17:54:26.781Z,51.50
2019-03-31T17:57:15.608Z,51.50
2019-03-31T18:00:05.901Z,51.60
2019-03-31T18:02:54.356Z,51.50
2019-03-31T18:05:42.629Z,51.60
2019-03-31T18:08:30.782Z,51.50
2019-03-31T18:11:19.198Z,51.60
2019-03-31T18:14:07.706Z,51.50
2019-03-31T18:16:56.253Z,51.60
2019-03-31T18:19:44.610Z,51.60
2019-03-31T18:22:33.536Z,51.70
2019-03-31T18:25:22.464Z,51.70
2019-03-31T18:28:11.286Z,51.70
2019-03-31T18:31:00.063Z,51.70
2019-03-31T18:33:48.608Z,51.70
2019-03-31T18:36:37.330Z,51.80
2019-03-31T18:39:25.806Z,51.80
2019-03-31T18:42:14.401Z,51.90
2019-03-31T18:45:02.802Z,51.80
2019-03-31T18:47:51.273Z,51.80
2019-03-31T18:50:39.497Z,51.80
2019-03-31T18:53:38.827Z,51.90
2019-03-31T18:56:45.108Z,51.80
2019-03-31T18:59:34.999Z,51.80
2019-03-31T19:02:25.347Z,51.80
2019-03-31T19:05:24.374Z,51.90
2019-03-31T19:08:13.175Z,51.90
2019-03-31T19:11:14.801Z,51.80
2019-03-31T19:14:06.373Z,51.90
2019-03-31T19:17:13.863Z,51.90
2019-03-31T19:20:04.106Z,51.90
2019-03-31T19:22:56.984Z,51.90
2019-03-31T19:25:55.767Z,51.90
2019-03-31T19:28:52.996Z,51.90
2019-03-31T19:31:43.190Z,52.00
2019-03-31T19:34:33.180Z,52.00
2019-03-31T19:37:39.821Z,52.00
2019-03-31T19:40:29.607Z,52.00
2019-03-31T19:43:37.521Z,52.00
2019-03-31T19:46:33.156Z,52.10
2019-03-31T19:49:26.888Z,52.10
2019-03-31T19:52:33.781Z,52.10
2019-03-31T19:55:26.639Z,52.10
2019-03-31T19:58:25.421Z,52.10
2019-03-31T20:01:21.372Z,52.00
2019-03-31T20:04:27.798Z,52.10
2019-03-31T20:07:29.610Z,52.00
2019-03-31T20:10:19.683Z,52.00
2019-03-31T20:13:12.160Z,52.10
2019-03-31T20:16:11.233Z,52.10
2019-03-31T20:19:17.037Z,52.20
2019-03-31T20:22:22.035Z,52.20
2019-03-31T20:25:30.262Z,52.10
2019-03-31T20:28:05.406Z,52.00
2019-03-31T20:30:55.564Z,52.20
2019-03-31T20:33:57.436Z,52.20
2019-03-31T20:36:49.888Z,52.30
2019-03-31T20:39:56.417Z,52.20
2019-03-31T20:42:43.172Z,52.30
2019-03-31T20:45:31.719Z,52.30
2019-03-31T20:48:20.421Z,52.40
2019-03-31T20:51:08.791Z,52.50
2019-03-31T20:53:57.085Z,52.40
2019-03-31T20:56:45.374Z,52.40
2019-03-31T20:59:34.007Z,52.60
2019-03-31T21:02:22.002Z,52.60
2019-03-31T21:05:10.157Z,52.80
2019-03-31T21:07:58.367Z,52.70
2019-03-31T21:10:46.958Z,52.70
2019-03-31T21:13:35.535Z,52.70
2019-03-31T21:16:23.664Z,52.80
2019-03-31T21:19:11.931Z,52.80
2019-03-31T21:21:59.997Z,52.80
2019-03-31T21:24:48.232Z,52.80
2019-03-31T21:27:36.410Z,52.80
2019-03-31T21:30:24.733Z,52.90
2019-03-31T21:33:12.962Z,53.00
2019-03-31T21:36:28.137Z,53.00
2019-03-31T21:39:08.393Z,53.10
2019-03-31T21:41:56.482Z,53.40
2019-03-31T21:44:44.598Z,53.30
2019-03-31T21:47:32.896Z,53.20
2019-03-31T21:50:21.255Z,53.20
2019-03-31T21:53:09.997Z,53.30
2019-03-31T21:55:58.451Z,53.40
2019-03-31T21:58:47.059Z,53.40
2019-03-31T22:01:35.303Z,53.40
2019-03-31T22:04:23.910Z,53.50
2019-03-31T22:07:12.383Z,53.60
2019-03-31T22:10:03.089Z,53.60
2019-03-31T22:12:51.462Z,53.70
2019-03-31T22:15:39.704Z,53.80
2019-03-31T22:18:28.032Z,53.80
2019-03-31T22:21:16.346Z,53.80
2019-03-31T22:24:04.863Z,53.90
2019-03-31T22:26:53.323Z,53.90
2019-03-31T22:29:24.079Z,54.00
2019-03-31T22:32:12.820Z,54.00
2019-03-31T22:35:00.885Z,54.00
2019-03-31T22:37:49.314Z,54.10
2019-03-31T22:40:37.470Z,54.10
2019-03-31T22:43:25.843Z,54.10
2019-03-31T22:46:14.175Z,54.20
2019-03-31T22:49:02.703Z,54.20
2019-03-31T22:51:50.839Z,54.20
2019-03-31T22:54:39.021Z,54.30
2019-03-31T22:57:27.428Z,54.20
2019-03-31T23:00:17.259Z,54.30
2019-03-31T23:03:05.676Z,54.30
2019-03-31T23:05:53.601Z,54.40
2019-03-31T23:08:42.025Z,54.40
2019-03-31T23:11:29.881Z,54.50
2019-03-31T23:14:18.153Z,54.40
2019-03-31T23:17:07.385Z,54.50
2019-03-31T23:19:55.468Z,54.50
2019-03-31T23:22:43.817Z,54.50
2019-03-31T23:25:31.880Z,54.50
2019-03-31T23:28:20.170Z,54.60
2019-03-31T23:31:08.699Z,54.60
2019-03-31T23:33:56.918Z,54.70
2019-03-31T23:36:45.467Z,54.70
2019-03-31T23:39:33.718Z,54.70
2019-03-31T23:42:21.883Z,54.80
2019-03-31T23:45:10.560Z,54.80
2019-03-31T23:47:59.058Z,54.90
2019-03-31T23:50:47.390Z,54.90
2019-03-31T23:53:35.814Z,54.90
2019-03-31T23:56:24.224Z,55.00
2019-03-31T23:58:54.863Z,55.00
